Time;durP1;ratioP1;P1;durP2;ratioP2;P2;SDS_P1;SDS_P2;PMS_P1;PMS_P2;Temp;Humidity;BMP_temperature;BMP_pressure;BME280_temperature;BME280_humidity;BME280_pressure;Samples;Min_cycle;Max_cycle;Signal;HPM_P1;HPM_P2
2020/12/18 00:00:55;;;;;;;18.13;9.77;;;8.70;87.70;;;;;;5052132;28;20095;-75
2020/12/18 00:03:20;;;;;;;23.42;11.07;;;8.70;87.00;;;;;;5052058;28;20025;-75
2020/12/18 00:05:46;;;;;;;20.13;11.32;;;8.70;86.90;;;;;;5051972;28;20027;-75
2020/12/18 00:08:11;;;;;;;25.23;11.05;;;8.70;86.80;;;;;;5050853;28;20031;-75
2020/12/18 00:10:40;;;;;;;19.33;10.70;;;8.60;86.80;;;;;;5051666;28;20469;-75
2020/12/18 00:13:07;;;;;;;19.25;10.77;;;8.70;86.90;;;;;;5051822;28;20028;-75
2020/12/18 00:15:33;;;;;;;26.10;10.43;;;8.60;86.80;;;;;;5051649;28;20020;-75
2020/12/18 00:17:58;;;;;;;22.20;12.48;;;8.60;87.60;;;;;;5055346;28;20355;-76
2020/12/18 00:20:24;;;;;;;18.58;9.73;;;8.60;87.50;;;;;;5054810;28;20024;-75
2020/12/18 00:22:49;;;;;;;20.23;10.45;;;8.60;88.30;;;;;;5054470;28;20021;-75
2020/12/18 00:25:15;;;;;;;23.73;10.00;;;8.50;88.90;;;;;;5054662;28;20473;-75
2020/12/18 00:27:44;;;;;;;18.42;8.52;;;8.50;88.60;;;;;;5056038;28;20090;-75
2020/12/18 00:30:11;;;;;;;18.42;11.43;;;8.50;89.10;;;;;;5055945;28;20045;-75
2020/12/18 00:32:38;;;;;;;18.65;10.30;;;8.60;89.00;;;;;;5054384;28;20027;-75
2020/12/18 00:35:05;;;;;;;17.33;10.30;;;8.50;88.50;;;;;;5054509;28;20423;-75
2020/12/18 00:37:31;;;;;;;22.17;11.13;;;8.50;88.70;;;;;;5054305;28;20017;-74
2020/12/18 00:39:56;;;;;;;17.88;9.35;;;8.50;89.00;;;;;;5055774;28;20441;-75
2020/12/18 00:42:22;;;;;;;18.17;10.80;;;8.60;89.40;;;;;;5055692;28;20103;-75
2020/12/18 00:44:48;;;;;;;17.23;10.00;;;8.50;90.20;;;;;;5054143;28;20017;-76
2020/12/18 00:47:13;;;;;;;20.80;10.88;;;8.50;90.00;;;;;;5054392;28;20094;-76
2020/12/18 00:49:41;;;;;;;18.17;10.63;;;8.40;89.90;;;;;;5055436;28;20465;-75
2020/12/18 00:52:07;;;;;;;19.80;10.95;;;8.50;90.60;;;;;;5054186;28;20078;-77
2020/12/18 00:54:33;;;;;;;20.30;11.38;;;8.50;90.70;;;;;;5055306;28;20020;-76
2020/12/18 00:56:58;;;;;;;24.02;11.65;;;8.60;90.50;;;;;;5054104;28;20492;-76
2020/12/18 00:59:24;;;;;;;28.77;13.45;;;8.60;90.10;;;;;;5054121;28;20025;-76
2020/12/18 01:01:59;;;;;;;19.45;11.60;;;8.50;90.10;;;;;;5053779;28;20029;-76
2020/12/18 01:04:25;;;;;;;22.67;11.18;;;8.50;90.20;;;;;;5054094;28;20437;-76
2020/12/18 01:06:55;;;;;;;22.63;11.40;;;8.50;90.20;;;;;;5053778;28;20043;-76
2020/12/18 01:09:24;;;;;;;21.23;11.43;;;8.50;90.20;;;;;;5054836;28;20351;-76
2020/12/18 01:11:51;;;;;;;22.65;10.23;;;8.50;89.80;;;;;;5053674;28;20025;-76
2020/12/18 01:14:17;;;;;;;20.65;11.77;;;8.50;90.00;;;;;;5053855;28;20021;-76
2020/12/18 01:16:53;;;;;;;23.05;11.50;;;8.50;89.10;;;;;;5053693;28;20159;-76
2020/12/18 01:19:19;;;;;;;17.70;9.65;;;8.50;89.50;;;;;;5053848;28;20135;-76
2020/12/18 01:21:45;;;;;;;21.58;11.00;;;8.50;88.80;;;;;;5053371;28;20115;-76
2020/12/18 01:24:11;;;;;;;22.02;11.73;;;8.50;89.20;;;;;;5054848;28;20035;-75
2020/12/18 01:26:36;;;;;;;24.52;12.55;;;8.50;88.90;;;;;;5053256;28;20021;-75
2020/12/18 01:29:02;;;;;;;24.58;11.82;;;8.40;88.50;;;;;;5054373;28;20063;-76
2020/12/18 01:31:27;;;;;;;26.85;11.70;;;8.50;88.60;;;;;;5053293;28;20066;-76
2020/12/18 01:33:53;;;;;;;19.83;10.65;;;8.40;89.20;;;;;;5054373;28;20020;-76
2020/12/18 01:36:19;;;;;;;17.65;10.45;;;8.30;89.10;;;;;;5053499;28;20013;-75
2020/12/18 01:38:45;;;;;;;17.15;10.18;;;8.40;89.10;;;;;;5053153;28;20400;-75
2020/12/18 01:41:11;;;;;;;20.70;11.38;;;8.40;89.20;;;;;;5054865;28;20112;-76
2020/12/18 01:43:37;;;;;;;20.02;8.57;;;8.40;89.50;;;;;;5054417;28;20104;-77
2020/12/18 01:46:08;;;;;;;19.30;9.82;;;8.40;89.70;;;;;;5053253;28;20415;-76
2020/12/18 01:48:34;;;;;;;17.65;10.00;;;8.40;90.10;;;;;;5054826;28;20092;-76
2020/12/18 01:50:59;;;;;;;22.30;10.63;;;8.40;89.80;;;;;;5052962;28;20112;-76
2020/12/18 01:53:27;;;;;;;20.77;10.68;;;8.40;89.90;;;;;;5053118;28;20100;-76
2020/12/18 01:55:53;;;;;;;18.70;10.65;;;8.40;89.80;;;;;;5054166;28;20013;-76
2020/12/18 01:58:21;;;;;;;20.00;10.43;;;8.40;90.00;;;;;;5053205;28;20025;-76
2020/12/18 02:00:48;;;;;;;14.90;9.32;;;8.40;89.70;;;;;;5052781;28;20059;-76
2020/12/18 02:03:14;;;;;;;24.58;11.13;;;8.40;89.40;;;;;;5052930;28;20032;-76
2020/12/18 02:05:40;;;;;;;19.52;10.15;;;8.40;89.00;;;;;;5053706;28;20031;-76
2020/12/18 02:08:06;;;;;;;16.58;9.90;;;8.40;89.20;;;;;;5052858;28;20092;-76
2020/12/18 02:10:32;;;;;;;19.08;9.98;;;8.40;88.70;;;;;;5054454;28;20016;-76
2020/12/18 02:12:59;;;;;;;23.42;10.10;;;8.40;88.50;;;;;;5054136;28;20072;-76
2020/12/18 02:15:26;;;;;;;25.27;9.90;;;8.40;88.20;;;;;;5054024;28;20025;-76
2020/12/18 02:17:52;;;;;;;22.48;11.18;;;8.40;88.00;;;;;;5052489;28;20021;-76
2020/12/18 02:20:18;;;;;;;22.88;9.95;;;8.40;89.20;;;;;;5053961;28;20009;-75
2020/12/18 02:22:44;;;;;;;21.75;10.57;;;8.40;89.20;;;;;;5052304;28;20032;-76
2020/12/18 02:25:11;;;;;;;18.55;7.63;;;8.40;89.00;;;;;;5053773;28;20021;-76
2020/12/18 02:27:40;;;;;;;17.50;8.93;;;8.30;89.00;;;;;;5053896;28;20076;-76
2020/12/18 02:30:07;;;;;;;19.42;9.23;;;8.30;89.30;;;;;;5052245;28;20120;-76
2020/12/18 02:32:33;;;;;;;29.27;11.57;;;8.40;89.60;;;;;;5053667;28;20033;-76
2020/12/18 02:34:58;;;;;;;26.05;11.07;;;8.40;89.60;;;;;;5053406;28;20100;-76
2020/12/18 02:37:24;;;;;;;23.98;10.07;;;8.30;89.30;;;;;;5053609;28;20396;-76
2020/12/18 02:39:49;;;;;;;23.33;10.18;;;8.30;89.30;;;;;;5052554;28;20064;-76
2020/12/18 02:42:15;;;;;;;22.40;9.85;;;8.30;89.10;;;;;;5052197;28;20519;-76
2020/12/18 02:44:40;;;;;;;21.40;10.27;;;8.30;89.00;;;;;;5053585;28;20021;-76
2020/12/18 02:47:06;;;;;;;14.52;8.55;;;8.30;88.70;;;;;;5053411;28;20063;-76
2020/12/18 02:49:31;;;;;;;21.05;9.63;;;8.30;88.90;;;;;;5053139;28;20028;-76
2020/12/18 02:51:57;;;;;;;16.58;8.93;;;8.30;88.80;;;;;;5051755;28;20394;-76
2020/12/18 02:54:22;;;;;;;19.98;9.68;;;8.20;88.70;;;;;;5052005;28;20017;-76
2020/12/18 02:56:48;;;;;;;19.75;9.50;;;8.20;88.50;;;;;;5053139;28;20025;-76
2020/12/18 02:59:14;;;;;;;19.75;9.40;;;8.20;88.50;;;;;;5051969;28;20021;-76
2020/12/18 03:01:39;;;;;;;20.58;7.82;;;8.20;88.50;;;;;;5051719;28;20369;-76
2020/12/18 03:04:05;;;;;;;16.17;7.40;;;8.20;88.50;;;;;;5053176;28;20381;-76
2020/12/18 03:06:30;;;;;;;17.40;8.00;;;8.20;89.90;;;;;;5051732;28;20338;-76
2020/12/18 03:08:56;;;;;;;15.02;7.30;;;8.20;90.10;;;;;;5051532;28;20021;-76
2020/12/18 03:11:22;;;;;;;20.85;9.48;;;8.20;89.80;;;;;;5051731;28;20369;-75
2020/12/18 03:13:49;;;;;;;20.73;9.00;;;8.20;90.20;;;;;;5051382;28;20070;-75
2020/12/18 03:16:15;;;;;;;20.58;9.48;;;8.10;90.00;;;;;;5051519;28;20412;-76
2020/12/18 03:18:40;;;;;;;20.92;9.05;;;8.20;89.60;;;;;;5052556;28;20025;-76
2020/12/18 03:21:06;;;;;;;21.75;9.63;;;8.10;89.30;;;;;;5051449;28;20032;-75
2020/12/18 03:23:31;;;;;;;15.43;7.55;;;8.20;89.80;;;;;;5051509;28;20112;-76
2020/12/18 03:25:57;;;;;;;18.98;9.45;;;8.20;89.70;;;;;;5051170;28;20021;-76
2020/12/18 03:28:23;;;;;;;15.68;6.38;;;8.20;89.50;;;;;;5052542;28;20339;-76
2020/12/18 03:30:48;;;;;;;16.10;7.88;;;8.10;89.90;;;;;;5051029;28;20082;-76
2020/12/18 03:33:14;;;;;;;17.17;8.05;;;8.10;90.20;;;;;;5051236;28;20424;-76
2020/12/18 03:35:40;;;;;;;19.20;8.98;;;8.10;90.00;;;;;;5052630;28;20025;-76
2020/12/18 03:38:05;;;;;;;20.88;7.95;;;8.10;89.50;;;;;;5052292;28;20020;-76
2020/12/18 03:40:31;;;;;;;20.27;8.95;;;8.10;90.00;;;;;;5052776;28;20031;-76
2020/12/18 03:42:57;;;;;;;21.40;9.18;;;8.10;90.00;;;;;;5052104;28;20083;-76
2020/12/18 03:45:22;;;;;;;18.63;8.45;;;8.10;90.00;;;;;;5052438;28;20064;-76
2020/12/18 03:47:48;;;;;;;13.32;6.82;;;8.10;89.40;;;;;;5052190;28;20017;-76
2020/12/18 03:50:13;;;;;;;18.92;8.40;;;8.10;89.50;;;;;;5052298;28;20136;-76
2020/12/18 03:52:39;;;;;;;20.75;8.60;;;8.10;89.60;;;;;;5052363;28;20098;-75
2020/12/18 03:55:05;;;;;;;15.90;6.93;;;8.00;89.30;;;;;;5050806;28;20420;-76
2020/12/18 03:57:30;;;;;;;14.40;7.75;;;8.00;89.30;;;;;;5051008;28;20013;-76
2020/12/18 03:59:56;;;;;;;18.52;6.85;;;8.00;89.90;;;;;;5050685;28;20102;-76
2020/12/18 04:02:21;;;;;;;15.18;8.00;;;8.00;89.80;;;;;;5051882;28;20029;-76
2020/12/18 04:04:47;;;;;;;16.02;7.53;;;7.90;89.90;;;;;;5050677;28;20063;-76
2020/12/18 04:07:13;;;;;;;20.83;7.85;;;8.00;89.90;;;;;;5050900;28;20025;-77
2020/12/18 04:09:43;;;;;;;13.38;7.43;;;8.00;90.00;;;;;;5050795;28;20107;-76
2020/12/18 04:12:10;;;;;;;13.90;6.80;;;8.00;90.70;;;;;;5051833;28;20025;-77
2020/12/18 04:14:36;;;;;;;15.60;7.60;;;8.00;90.50;;;;;;5051838;28;20404;-76
2020/12/18 04:17:05;;;;;;;13.15;6.68;;;8.00;90.50;;;;;;5050573;28;20040;-76
2020/12/18 04:19:31;;;;;;;13.45;6.80;;;8.00;90.40;;;;;;5050825;28;20012;-76
2020/12/18 04:21:57;;;;;;;18.58;8.57;;;8.00;90.40;;;;;;5050426;28;20029;-76
2020/12/18 04:24:23;;;;;;;15.45;8.35;;;8.00;90.50;;;;;;5050647;28;20021;-76
2020/12/18 04:26:49;;;;;;;16.73;8.23;;;8.00;90.50;;;;;;5051601;28;20120;-75
2020/12/18 04:29:15;;;;;;;13.23;4.85;;;8.00;90.20;;;;;;5051942;28;20053;-76
2020/12/18 04:31:41;;;;;;;16.88;6.00;;;8.00;90.10;;;;;;5050546;28;20017;-76
2020/12/18 04:34:06;;;;;;;15.93;6.40;;;8.10;90.40;;;;;;5051664;28;20369;-76
2020/12/18 04:36:32;;;;;;;26.67;8.35;;;8.00;90.60;;;;;;5051939;28;20025;-76
2020/12/18 04:38:58;;;;;;;10.32;5.57;;;8.00;90.80;;;;;;5051684;28;20098;-76
2020/12/18 04:41:25;;;;;;;16.58;7.50;;;8.00;90.70;;;;;;5050545;28;20021;-76
2020/12/18 04:43:52;;;;;;;16.77;7.40;;;8.00;90.80;;;;;;5051295;28;20028;-76
2020/12/18 04:46:20;;;;;;;19.05;8.02;;;8.00;91.00;;;;;;5051877;28;20020;-76
2020/12/18 04:48:47;;;;;;;13.60;6.05;;;8.00;91.00;;;;;;5050502;28;20108;-76
2020/12/18 04:51:18;;;;;;;11.15;6.30;;;8.00;91.00;;;;;;5051814;28;20100;-76
2020/12/18 04:53:47;;;;;;;17.48;7.60;;;8.00;91.00;;;;;;5051789;28;20023;-76
2020/12/18 04:56:14;;;;;;;15.73;7.32;;;8.00;91.20;;;;;;5051815;28;20020;-76
2020/12/18 04:58:41;;;;;;;14.32;6.20;;;8.00;90.90;;;;;;5051919;28;20465;-76
2020/12/18 05:01:07;;;;;;;15.35;7.45;;;7.90;90.80;;;;;;5051375;28;20021;-76
2020/12/18 05:03:34;;;;;;;15.95;7.05;;;7.90;90.90;;;;;;5053883;28;20078;-76
2020/12/18 05:06:03;;;;;;;14.70;7.57;;;7.80;91.00;;;;;;5053838;28;20086;-76
2020/12/18 05:08:30;;;;;;;18.15;6.97;;;7.80;91.00;;;;;;5055301;28;20020;-76
2020/12/18 05:10:56;;;;;;;17.30;6.90;;;7.80;91.10;;;;;;5055072;28;20009;-76
2020/12/18 05:13:21;;;;;;;23.05;6.45;;;7.80;90.90;;;;;;5055186;28;20018;-76
2020/12/18 05:15:47;;;;;;;16.52;6.80;;;7.80;90.60;;;;;;5053619;28;20094;-76
2020/12/18 05:18:13;;;;;;;17.92;7.70;;;7.80;91.00;;;;;;5055045;28;20017;-76
2020/12/18 05:20:38;;;;;;;18.27;6.88;;;7.80;90.80;;;;;;5053750;28;20074;-76
2020/12/18 05:23:09;;;;;;;16.17;7.70;;;7.70;90.60;;;;;;5053430;28;20052;-76
2020/12/18 05:25:38;;;;;;;17.77;6.85;;;7.70;90.50;;;;;;5053573;28;20407;-76
2020/12/18 05:28:04;;;;;;;15.57;7.78;;;7.70;90.30;;;;;;5053461;28;20021;-76
2020/12/18 05:30:30;;;;;;;18.00;8.02;;;7.70;90.80;;;;;;5053341;28;20045;-77
2020/12/18 05:32:56;;;;;;;12.25;5.65;;;7.70;90.60;;;;;;5053322;28;20051;-76
2020/12/18 05:35:22;;;;;;;14.88;7.03;;;7.70;90.70;;;;;;5053600;28;20116;-76
2020/12/18 05:37:50;;;;;;;14.02;7.78;;;7.70;90.60;;;;;;5054803;28;20446;-76
2020/12/18 05:40:17;;;;;;;19.98;7.82;;;7.70;90.80;;;;;;5053461;28;20017;-77
2020/12/18 05:42:47;;;;;;;16.55;6.50;;;7.70;91.20;;;;;;5053359;28;20060;-76
2020/12/18 05:45:20;;;;;;;21.88;8.77;;;7.60;91.20;;;;;;5053171;28;20400;-76
2020/12/18 05:48:00;;;;;;;21.95;7.97;;;7.70;91.10;;;;;;5054616;28;20019;-76
2020/12/18 05:50:34;;;;;;;22.65;7.68;;;7.70;91.00;;;;;;5054585;28;20094;-76
2020/12/18 05:53:02;;;;;;;13.95;7.07;;;7.70;90.90;;;;;;5052936;28;20461;-76
2020/12/18 05:55:33;;;;;;;18.05;6.28;;;7.70;91.00;;;;;;5054370;28;20100;-76
2020/12/18 05:57:59;;;;;;;17.65;7.03;;;7.70;91.00;;;;;;5054021;28;20021;-76
2020/12/18 06:00:24;;;;;;;17.23;6.80;;;7.70;90.80;;;;;;5054453;28;20356;-76
2020/12/18 06:03:00;;;;;;;16.50;6.53;;;7.70;90.90;;;;;;5053949;28;20032;-76
2020/12/18 06:05:26;;;;;;;15.93;6.03;;;7.70;90.80;;;;;;5054265;28;20476;-76
2020/12/18 06:07:52;;;;;;;15.13;6.82;;;7.70;90.80;;;;;;5054013;28;20032;-76
2020/12/18 06:10:23;;;;;;;17.98;6.22;;;7.70;90.70;;;;;;5052892;28;20024;-76
2020/12/18 06:12:58;;;;;;;14.45;6.20;;;7.70;91.00;;;;;;5052560;28;20023;-76
2020/12/18 06:15:25;;;;;;;18.65;6.07;;;7.80;91.00;;;;;;5052951;28;20025;-77
2020/12/18 06:17:52;;;;;;;9.98;5.22;;;7.80;91.10;;;;;;5054116;28;20066;-76
2020/12/18 06:20:20;;;;;;;14.88;5.97;;;7.80;91.20;;;;;;5053957;28;20013;-76
2020/12/18 06:22:56;;;;;;;15.40;5.60;;;7.80;91.30;;;;;;5052590;28;20071;-75
2020/12/18 06:25:22;;;;;;;18.70;5.70;;;7.80;91.60;;;;;;5052567;28;20013;-76
2020/12/18 06:28:00;;;;;;;14.93;5.63;;;7.80;91.60;;;;;;5053635;28;20024;-76
2020/12/18 06:30:26;;;;;;;14.23;5.97;;;7.80;92.00;;;;;;5051972;28;20041;-76
2020/12/18 06:32:52;;;;;;;10.13;5.28;;;7.90;91.90;;;;;;5053757;28;20044;-76
2020/12/18 06:35:35;;;;;;;11.52;5.20;;;7.90;91.90;;;;;;5053622;28;20021;-76
2020/12/18 06:38:13;;;;;;;15.98;5.88;;;7.90;92.00;;;;;;5052033;28;20013;-76
2020/12/18 06:40:40;;;;;;;13.65;5.07;;;7.90;92.00;;;;;;5052200;28;20071;-76
2020/12/18 06:43:06;;;;;;;13.95;4.68;;;8.00;92.10;;;;;;5053115;28;20027;-75
2020/12/18 06:45:32;;;;;;;9.63;4.72;;;8.10;92.20;;;;;;5053396;28;20024;-76
2020/12/18 06:47:58;;;;;;;12.80;6.60;;;8.10;91.90;;;;;;5051780;28;20095;-75
2020/12/18 06:50:23;;;;;;;8.55;4.10;;;8.20;92.00;;;;;;5053333;28;20449;-75
2020/12/18 06:52:50;;;;;;;14.43;4.50;;;8.20;91.90;;;;;;5051974;28;20031;-75
2020/12/18 06:55:25;;;;;;;10.40;4.63;;;8.20;91.90;;;;;;5052983;28;20049;-75
2020/12/18 06:58:05;;;;;;;12.18;5.53;;;8.20;91.70;;;;;;5052972;28;20371;-75
2020/12/18 07:00:33;;;;;;;11.80;4.50;;;8.20;91.40;;;;;;5053111;28;20017;-75
2020/12/18 07:02:59;;;;;;;9.95;5.05;;;8.20;91.60;;;;;;5051413;28;20025;-75
2020/12/18 07:05:41;;;;;;;11.77;3.83;;;8.20;91.30;;;;;;5052865;28;20454;-76
2020/12/18 07:08:15;;;;;;;9.57;4.30;;;8.30;91.40;;;;;;5052596;28;20025;-76
2020/12/18 07:10:45;;;;;;;18.67;5.05;;;8.30;92.10;;;;;;5072547;28;20428;-75
2020/12/18 07:13:18;;;;;;;13.55;4.57;;;8.30;91.90;;;;;;5071344;28;20039;-75
2020/12/18 07:15:44;;;;;;;13.10;4.57;;;8.30;91.90;;;;;;5071400;28;20395;-76
2020/12/18 07:18:24;;;;;;;22.30;5.03;;;8.30;91.40;;;;;;5072469;28;20103;-75
2020/12/18 07:20:55;;;;;;;13.95;4.47;;;8.30;91.40;;;;;;5071382;28;20048;-76
2020/12/18 07:23:23;;;;;;;10.93;4.25;;;8.30;91.60;;;;;;5072536;28;20043;-75
2020/12/18 07:25:49;;;;;;;14.73;4.88;;;8.30;91.80;;;;;;5058428;28;20420;-75
2020/12/18 07:28:16;;;;;;;12.88;4.18;;;8.40;91.60;;;;;;5060290;28;20023;-75
2020/12/18 07:30:44;;;;;;;13.68;4.93;;;8.50;91.90;;;;;;5061853;28;20163;-75
2020/12/18 07:33:11;;;;;;;8.95;4.43;;;8.50;92.00;;;;;;5058742;28;20568;-75
2020/12/18 07:35:41;;;;;;;13.52;5.18;;;8.60;91.80;;;;;;5059539;28;20369;-76
2020/12/18 07:38:19;;;;;;;19.38;4.70;;;8.60;91.40;;;;;;5060091;28;20103;-76
2020/12/18 07:40:46;;;;;;;15.80;5.20;;;8.60;91.20;;;;;;5062922;28;20024;-75
2020/12/18 07:43:13;;;;;;;16.35;4.60;;;8.60;91.70;;;;;;5070834;28;20021;-75
2020/12/18 07:45:47;;;;;;;21.35;5.32;;;8.60;91.80;;;;;;5072320;28;20020;-74
2020/12/18 07:48:16;;;;;;;13.43;3.83;;;8.60;91.60;;;;;;5072121;28;20020;-74
2020/12/18 07:50:59;;;;;;;10.63;3.63;;;8.70;91.60;;;;;;5070962;28;20016;-74
2020/12/18 07:53:25;;;;;;;15.90;4.35;;;8.70;90.90;;;;;;5071038;28;20365;-73
2020/12/18 07:56:21;;;;;;;14.88;4.78;;;8.80;91.20;;;;;;5072353;28;20016;-74
2020/12/18 07:59:07;;;;;;;9.75;4.22;;;8.70;90.40;;;;;;5071565;28;20466;-75
2020/12/18 08:01:35;;;;;;;12.40;4.25;;;8.70;90.10;;;;;;5070771;28;20479;-75
2020/12/18 08:04:05;;;;;;;15.43;4.97;;;8.70;90.20;;;;;;5070460;28;20016;-75
2020/12/18 08:06:32;;;;;;;8.70;3.07;;;8.80;89.80;;;;;;5072002;28;20020;-75
2020/12/18 08:09:00;;;;;;;13.55;4.07;;;8.80;90.00;;;;;;5070529;28;20020;-75
2020/12/18 08:11:27;;;;;;;11.70;4.05;;;8.80;90.30;;;;;;5070927;28;20450;-75
2020/12/18 08:13:56;;;;;;;14.00;4.95;;;8.80;90.10;;;;;;5072158;28;20095;-75
2020/12/18 08:16:26;;;;;;;9.82;4.15;;;8.90;90.00;;;;;;5070760;28;20162;-75
2020/12/18 08:18:54;;;;;;;14.43;4.30;;;8.80;89.50;;;;;;5070868;28;20107;-75
2020/12/18 08:21:21;;;;;;;10.15;4.75;;;8.80;88.90;;;;;;5070171;28;20017;-75
2020/12/18 08:24:15;;;;;;;11.98;5.07;;;8.80;88.60;;;;;;5072092;28;20028;-75
2020/12/18 08:26:45;;;;;;;13.55;5.32;;;8.80;89.20;;;;;;5050666;28;20475;-75
2020/12/18 08:29:12;;;;;;;12.10;4.75;;;8.80;88.90;;;;;;5051351;28;20045;-75
2020/12/18 08:31:42;;;;;;;17.27;5.25;;;8.80;88.30;;;;;;5051886;28;20028;-75
2020/12/18 08:34:11;;;;;;;10.38;4.35;;;8.70;88.30;;;;;;5050306;28;20017;-75
2020/12/18 08:36:41;;;;;;;11.23;4.65;;;8.70;88.90;;;;;;5050595;28;20021;-75
2020/12/18 08:39:09;;;;;;;11.50;4.40;;;8.70;89.30;;;;;;5053668;28;20021;-75
2020/12/18 08:41:38;;;;;;;13.38;4.93;;;8.70;89.50;;;;;;5054467;28;20109;-76
2020/12/18 08:44:05;;;;;;;12.63;5.90;;;8.70;89.40;;;;;;5054164;28;20032;-75
2020/12/18 08:46:33;;;;;;;14.52;4.88;;;8.70;89.00;;;;;;5055748;28;20747;-75
2020/12/18 08:48:59;;;;;;;15.43;5.32;;;8.70;89.10;;;;;;5055646;28;20021;-75
2020/12/18 08:51:27;;;;;;;11.93;5.32;;;8.70;89.00;;;;;;5055412;28;20034;-74
2020/12/18 08:53:52;;;;;;;17.13;5.47;;;8.70;89.10;;;;;;5055621;28;20024;-76
2020/12/18 08:56:19;;;;;;;16.90;5.85;;;8.70;89.50;;;;;;5054032;28;20079;-76
2020/12/18 08:58:45;;;;;;;16.70;6.30;;;8.80;89.50;;;;;;5055495;28;20453;-76
2020/12/18 09:01:29;;;;;;;11.45;5.53;;;8.80;89.30;;;;;;5055060;28;20071;-76
2020/12/18 09:03:54;;;;;;;12.65;5.78;;;8.80;89.20;;;;;;5054097;28;20042;-76
2020/12/18 09:06:22;;;;;;;11.98;4.97;;;8.80;90.00;;;;;;5054751;28;20027;-76
2020/12/18 09:08:48;;;;;;;12.32;5.32;;;8.80;89.50;;;;;;5055256;28;20070;-76
2020/12/18 09:11:23;;;;;;;11.02;6.35;;;8.80;90.00;;;;;;5054738;28;20025;-75
2020/12/18 09:13:48;;;;;;;15.18;6.13;;;8.90;89.40;;;;;;5053873;28;20070;-75
2020/12/18 09:16:14;;;;;;;23.88;7.70;;;8.90;89.50;;;;;;5068565;28;20028;-74
2020/12/18 09:18:46;;;;;;;15.15;6.05;;;9.00;89.20;;;;;;5073058;28;20034;-75
2020/12/18 09:21:12;;;;;;;11.20;5.95;;;8.90;88.50;;;;;;5074106;28;20050;-74
2020/12/18 09:23:39;;;;;;;15.50;6.88;;;9.00;89.20;;;;;;5074153;28;20027;-75
2020/12/18 09:26:05;;;;;;;20.63;7.75;;;9.00;89.00;;;;;;5060004;28;20459;-74
2020/12/18 09:28:37;;;;;;;13.82;6.78;;;9.10;89.00;;;;;;5054562;28;20025;-75
2020/12/18 09:31:05;;;;;;;18.15;7.50;;;9.10;89.20;;;;;;5054092;28;20096;-75
2020/12/18 09:33:32;;;;;;;15.13;6.88;;;9.10;88.70;;;;;;5071148;28;20081;-76
2020/12/18 09:35:58;;;;;;;14.05;5.60;;;9.20;88.80;;;;;;5070592;28;20432;-76
2020/12/18 09:38:26;;;;;;;12.93;5.10;;;9.20;88.90;;;;;;5067141;28;20032;-77
2020/12/18 09:40:53;;;;;;;15.82;7.40;;;9.30;90.00;;;;;;5074633;28;20021;-75
2020/12/18 09:43:19;;;;;;;15.55;6.72;;;9.40;90.00;;;;;;5074544;28;20031;-75
2020/12/18 09:45:45;;;;;;;18.15;7.72;;;9.40;90.20;;;;;;5073861;28;20074;-75
2020/12/18 09:48:11;;;;;;;16.38;6.07;;;9.50;90.30;;;;;;5072620;28;20020;-75
2020/12/18 09:50:37;;;;;;;17.50;6.47;;;9.60;89.20;;;;;;5072978;28;20364;-74
2020/12/18 09:53:04;;;;;;;19.30;6.28;;;9.60;88.90;;;;;;5073949;28;20105;-75
2020/12/18 09:55:29;;;;;;;15.95;6.63;;;9.70;88.50;;;;;;5073116;28;20017;-75
2020/12/18 09:57:55;;;;;;;19.25;6.30;;;9.80;88.70;;;;;;5071096;28;20020;-77
2020/12/18 10:00:20;;;;;;;14.68;5.10;;;9.90;87.50;;;;;;5073389;28;20031;-74
2020/12/18 10:02:46;;;;;;;13.05;5.55;;;10.20;88.10;;;;;;5072111;28;20107;-75
2020/12/18 10:05:11;;;;;;;12.85;4.75;;;10.50;86.00;;;;;;5073602;28;20052;-76
2020/12/18 10:07:37;;;;;;;11.00;3.72;;;11.30;84.30;;;;;;5073743;28;20025;-78
2020/12/18 10:10:03;;;;;;;11.82;4.35;;;12.10;83.80;;;;;;5072403;28;20028;-78
2020/12/18 10:12:29;;;;;;;15.57;4.95;;;12.70;79.50;;;;;;5073995;28;20050;-79
2020/12/18 10:14:54;;;;;;;10.45;3.58;;;13.00;79.40;;;;;;5072157;28;20024;-77
2020/12/18 10:17:20;;;;;;;10.60;3.40;;;13.20;78.10;;;;;;5066774;28;20053;-77
2020/12/18 10:19:46;;;;;;;10.13;4.35;;;13.20;81.40;;;;;;5068674;28;20016;-76
2020/12/18 10:22:11;;;;;;;13.65;4.47;;;13.00;77.30;;;;;;5072735;28;20032;-76
2020/12/18 10:24:37;;;;;;;10.45;3.83;;;12.70;77.30;;;;;;5068973;28;20047;-76
2020/12/18 10:27:02;;;;;;;11.13;4.15;;;12.40;79.50;;;;;;5052392;28;20017;-76
2020/12/18 10:29:28;;;;;;;8.85;3.60;;;12.20;79.20;;;;;;5051276;28;20435;-75
2020/12/18 10:31:58;;;;;;;10.82;3.60;;;12.40;83.00;;;;;;5052153;28;20032;-75
2020/12/18 10:34:24;;;;;;;12.10;4.07;;;12.60;78.90;;;;;;5052220;28;20087;-75
2020/12/18 10:36:52;;;;;;;10.52;3.45;;;12.60;78.10;;;;;;5051994;28;20096;-75
2020/12/18 10:39:18;;;;;;;8.40;3.42;;;12.60;79.00;;;;;;5053065;28;20013;-74
2020/12/18 10:41:44;;;;;;;9.88;3.33;;;12.40;79.70;;;;;;5053337;28;20064;-77
2020/12/18 10:44:10;;;;;;;8.38;3.67;;;12.20;78.90;;;;;;5051353;28;20059;-77
2020/12/18 10:46:36;;;;;;;10.43;3.88;;;12.20;81.30;;;;;;5051825;28;20100;-76
2020/12/18 10:49:02;;;;;;;8.90;4.18;;;12.10;80.50;;;;;;5068625;28;20019;-77
2020/12/18 10:51:27;;;;;;;18.20;4.18;;;12.20;83.80;;;;;;5068101;28;20021;-77
2020/12/18 10:53:53;;;;;;;9.95;4.72;;;12.60;79.60;;;;;;5054762;28;20028;-76
2020/12/18 10:56:18;;;;;;;14.45;3.80;;;12.90;78.70;;;;;;5072715;28;20059;-76
2020/12/18 10:58:44;;;;;;;10.80;3.38;;;13.10;76.10;;;;;;5073282;28;20449;-79
2020/12/18 11:01:10;;;;;;;12.23;3.30;;;12.90;78.90;;;;;;5071611;28;20449;-79
2020/12/18 11:03:35;;;;;;;9.30;3.53;;;13.20;74.50;;;;;;5071676;28;20453;-78
2020/12/18 11:06:04;;;;;;;10.57;3.83;;;13.50;76.40;;;;;;5071816;28;20479;-78
2020/12/18 11:08:29;;;;;;;14.80;3.78;;;13.60;75.80;;;;;;5071339;28;20028;-79
2020/12/18 11:10:55;;;;;;;8.95;3.38;;;13.70;73.80;;;;;;5073223;28;20021;-78
2020/12/18 11:13:21;;;;;;;8.65;2.78;;;13.90;77.50;;;;;;5071350;28;20445;-79
2020/12/18 11:15:47;;;;;;;16.20;4.60;;;14.20;74.80;;;;;;5071621;28;20017;-78
2020/12/18 11:18:12;;;;;;;10.70;3.05;;;14.50;71.30;;;;;;5071244;28;20036;-78
2020/12/18 11:20:38;;;;;;;8.68;2.92;;;14.70;68.80;;;;;;5072527;28;20092;-78
2020/12/18 11:23:05;;;;;;;12.20;3.45;;;15.20;74.20;;;;;;5071308;28;20020;-77
2020/12/18 11:25:31;;;;;;;12.40;3.92;;;15.10;77.40;;;;;;5062466;28;20020;-78
2020/12/18 11:27:57;;;;;;;9.52;4.00;;;;;;;;;;5051443;28;20365;-75
2020/12/18 11:30:22;;;;;;;9.27;2.80;;;15.30;67.30;;;;;;5050821;28;20045;-77
2020/12/18 11:32:49;;;;;;;10.10;3.08;;;15.50;66.10;;;;;;5051310;28;20082;-78
2020/12/18 11:35:16;;;;;;;9.98;3.10;;;15.50;65.30;;;;;;5051015;28;20407;-78
2020/12/18 11:37:42;;;;;;;9.05;3.08;;;15.40;66.50;;;;;;5052533;28;20024;-78
2020/12/18 11:40:07;;;;;;;10.05;2.80;;;15.60;65.00;;;;;;5050890;28;20021;-78
2020/12/18 11:42:33;;;;;;;11.90;2.88;;;15.60;65.40;;;;;;5051037;28;20124;-77
2020/12/18 11:44:59;;;;;;;10.50;3.40;;;15.80;67.70;;;;;;5052202;28;20024;-77
2020/12/18 11:47:26;;;;;;;9.38;2.90;;;15.80;67.40;;;;;;5050961;28;20103;-77
2020/12/18 11:49:52;;;;;;;10.32;3.15;;;15.60;65.70;;;;;;5051073;28;20013;-78
2020/12/18 11:52:17;;;;;;;10.55;2.70;;;15.70;67.40;;;;;;5052321;28;20480;-77
2020/12/18 11:54:43;;;;;;;9.63;2.45;;;15.70;66.20;;;;;;5051121;28;20580;-77
2020/12/18 11:57:08;;;;;;;7.30;2.58;;;15.80;66.00;;;;;;5050663;28;20450;-77
2020/12/18 11:59:34;;;;;;;13.88;3.95;;;15.90;65.10;;;;;;5052590;28;20052;-78
2020/12/18 12:02:00;;;;;;;6.38;2.78;;;15.90;64.00;;;;;;5052338;28;20104;-77
2020/12/18 12:04:25;;;;;;;10.32;2.92;;;15.80;64.00;;;;;;5050658;28;20032;-77
2020/12/18 12:06:51;;;;;;;8.82;2.58;;;15.80;66.70;;;;;;5050960;28;20017;-77
2020/12/18 12:09:16;;;;;;;9.00;2.70;;;15.80;65.00;;;;;;5050651;28;20104;-77
2020/12/18 12:11:42;;;;;;;8.15;3.35;;;15.90;67.40;;;;;;5051898;28;20103;-78
2020/12/18 12:14:08;;;;;;;7.25;2.58;;;16.00;64.40;;;;;;5056409;28;20024;-77
2020/12/18 12:16:35;;;;;;;10.38;3.03;;;16.10;65.10;;;;;;5054755;28;20017;-76
2020/12/18 12:19:02;;;;;;;10.40;3.30;;;16.10;67.70;;;;;;5054610;28;20017;-75
2020/12/18 12:21:32;;;;;;;10.20;3.17;;;16.30;63.90;;;;;;5055918;28;20462;-77
2020/12/18 12:23:58;;;;;;;9.77;2.70;;;16.60;61.60;;;;;;5054871;28;20450;-77
2020/12/18 12:26:23;;;;;;;8.23;2.90;;;16.70;65.20;;;;;;5054598;28;20025;-77
2020/12/18 12:28:49;;;;;;;7.88;2.78;;;16.90;62.10;;;;;;5055928;28;20419;-77
2020/12/18 12:31:14;;;;;;;8.60;2.50;;;16.80;65.20;;;;;;5054440;28;20017;-77
2020/12/18 12:33:40;;;;;;;5.07;2.40;;;16.80;67.20;;;;;;5056013;28;20100;-77
2020/12/18 12:36:05;;;;;;;9.77;2.80;;;17.00;64.90;;;;;;5054675;28;20060;-77
2020/12/18 12:38:31;;;;;;;10.05;2.85;;;16.90;66.60;;;;;;5054440;28;20025;-77
2020/12/18 12:40:56;;;;;;;8.02;3.03;;;16.90;63.30;;;;;;5056126;28;20025;-78
2020/12/18 12:43:22;;;;;;;7.88;2.30;;;17.00;65.50;;;;;;5054168;28;20075;-78
2020/12/18 12:45:47;;;;;;;6.93;2.00;;;17.20;63.80;;;;;;5054196;28;20075;-78